Time;durP1;ratioP1;P1;durP2;ratioP2;P2;SDS_P1;SDS_P2;PMS_P1;PMS_P2;Temp;Humidity;BMP_temperature;BMP_pressure;BME280_temperature;BME280_humidity;BME280_pressure;Samples;Min_cycle;Max_cycle;Signal;HPM_P1;HPM_P2
2020/12/24 00:02:36;;;;;;;132.50;94.07;;;;;;;9.44;96.08;101012.94;5053515;28;20037;-77
2020/12/24 00:05:40;;;;;;;138.00;94.88;;;;;;;9.39;96.57;101001.69;5062506;28;20048;-77
2020/12/24 00:08:45;;;;;;;154.75;102.25;;;;;;;9.34;96.20;101001.16;5058707;28;20048;-77
2020/12/24 00:11:49;;;;;;;140.60;95.05;;;;;;;9.36;96.18;100996.56;5072970;28;20040;-77
2020/12/24 00:14:53;;;;;;;145.82;99.68;;;;;;;9.31;96.62;100990.66;5073189;28;20048;-77
2020/12/24 00:17:57;;;;;;;163.95;107.50;;;;;;;9.23;97.13;100990.38;5055502;28;20045;-75
2020/12/24 00:21:08;;;;;;;162.30;104.75;;;;;;;9.23;97.14;100979.69;5057148;28;20049;-78
2020/12/24 00:24:13;;;;;;;155.48;103.03;;;;;;;9.26;97.15;100971.41;5064554;28;20484;-80
2020/12/24 00:27:17;;;;;;;144.45;99.30;;;;;;;9.31;96.96;100977.28;5057313;28;20041;-80
2020/12/24 00:30:22;;;;;;;151.73;102.85;;;;;;;9.23;96.82;100970.78;5059050;28;20040;-79
2020/12/24 00:33:27;;;;;;;152.82;101.65;;;;;;;9.18;97.15;100947.00;5064654;28;20049;-79
2020/12/24 00:36:32;;;;;;;159.05;103.97;;;;;;;9.15;97.59;100952.59;5060949;28;20044;-79
2020/12/24 00:39:36;;;;;;;157.70;97.85;;;;;;;9.25;97.11;100945.59;5076762;28;20052;-79
2020/12/24 00:42:40;;;;;;;152.90;98.82;;;;;;;9.15;96.65;100940.06;5069033;28;20037;-78
2020/12/24 00:45:44;;;;;;;153.93;102.95;;;;;;;9.13;97.44;100954.53;5055916;28;20049;-78
2020/12/24 00:48:48;;;;;;;155.30;101.03;;;;;;;9.10;97.28;100933.31;5071369;28;20483;-80
2020/12/24 00:51:53;;;;;;;157.27;101.00;;;;;;;9.08;97.63;100932.56;5076953;28;20048;-78
2020/12/24 00:54:57;;;;;;;165.38;98.20;;;;;;;9.10;97.61;100944.03;5067266;28;20048;-79
2020/12/24 00:58:01;;;;;;;152.95;97.35;;;;;;;9.10;97.03;100934.19;5059597;28;20037;-79
2020/12/24 01:01:07;;;;;;;153.48;94.70;;;;;;;9.15;97.33;100947.22;5055534;28;20053;-79
2020/12/24 01:04:11;;;;;;;156.48;94.35;;;;;;;9.00;97.43;100917.06;5064021;28;20045;-78
2020/12/24 01:07:15;;;;;;;139.70;89.85;;;;;;;9.03;97.60;100910.63;5073255;28;20199;-79
2020/12/24 01:10:19;;;;;;;152.45;95.97;;;;;;;8.97;97.33;100911.06;5075561;28;20044;-79
2020/12/24 01:13:23;;;;;;;153.88;91.82;;;;;;;9.07;96.89;100902.25;5056235;28;20392;-79
2020/12/24 01:16:28;;;;;;;149.27;92.68;;;;;;;9.08;97.12;100903.97;5064536;28;20052;-79
2020/12/24 01:19:32;;;;;;;151.75;95.00;;;;;;;9.00;97.19;100901.00;5066087;28;20049;-78
2020/12/24 01:22:39;;;;;;;162.32;96.35;;;;;;;9.04;97.09;100910.50;5076274;28;20384;-79
2020/12/24 01:25:43;;;;;;;151.98;91.88;;;;;;;9.03;97.13;100906.13;5068011;28;20395;-79
2020/12/24 01:28:48;;;;;;;145.65;92.07;;;;;;;9.07;97.16;100901.41;5060128;28;20036;-79
2020/12/24 01:31:52;;;;;;;145.35;93.93;;;;;;;9.06;96.78;100897.84;5075913;28;20388;-79
2020/12/24 01:34:56;;;;;;;151.77;92.05;;;;;;;9.11;97.26;100893.03;5055539;28;20045;-79
2020/12/24 01:38:00;;;;;;;156.38;95.82;;;;;;;8.99;97.27;100867.16;5063297;28;20040;-78
2020/12/24 01:41:04;;;;;;;162.68;97.82;;;;;;;8.99;97.29;100877.00;5072168;28;20491;-78
2020/12/24 01:44:09;;;;;;;157.70;93.90;;;;;;;9.02;97.24;100866.06;5075750;28;20052;-77
2020/12/24 01:47:17;;;;;;;167.57;95.93;;;;;;;9.04;97.89;100858.75;5067285;28;20492;-79
2020/12/24 01:50:21;;;;;;;185.82;101.57;;;;;;;8.92;97.54;100857.84;5055599;28;20487;-76
2020/12/24 01:53:25;;;;;;;174.45;101.38;;;;;;;9.05;97.85;100860.50;5056476;28;20041;-78
2020/12/24 01:56:30;;;;;;;179.20;102.93;;;;;;;8.98;97.72;100851.19;5075409;28;20044;-77
2020/12/24 01:59:34;;;;;;;179.52;102.05;;;;;;;8.98;98.03;100837.81;5064665;28;20487;-79
2020/12/24 02:02:39;;;;;;;190.55;107.93;;;;;;;8.97;98.31;100842.31;5074823;28;20052;-79
2020/12/24 02:05:43;;;;;;;192.20;107.70;;;;;;;9.04;98.21;100853.41;5075497;28;20048;-78
2020/12/24 02:08:47;;;;;;;194.32;108.78;;;;;;;9.00;98.45;100847.44;5056910;28;20049;-78
2020/12/24 02:11:52;;;;;;;194.95;107.72;;;;;;;8.98;98.62;100832.47;5054582;28;20049;-79
2020/12/24 02:14:57;;;;;;;196.20;109.78;;;;;;;8.97;98.62;100825.38;5063829;28;20040;-79
2020/12/24 02:18:01;;;;;;;201.43;111.68;;;;;;;8.96;98.52;100823.69;5072306;28;20036;-79
2020/12/24 02:21:05;;;;;;;193.95;111.53;;;;;;;9.02;99.31;100824.09;5062636;28;20060;-79
2020/12/24 02:24:10;;;;;;;207.00;112.03;;;;;;;8.92;98.77;100812.34;5055185;28;20400;-78
2020/12/24 02:27:14;;;;;;;205.68;114.78;;;;;;;8.99;99.25;100807.38;5054798;28;20045;-79
2020/12/24 02:30:19;;;;;;;193.55;110.32;;;;;;;9.06;99.34;100811.34;5066766;28;20044;-78
2020/12/24 02:33:23;;;;;;;210.77;116.70;;;;;;;8.98;98.95;100811.91;5063299;28;20037;-79
2020/12/24 02:36:28;;;;;;;214.50;117.60;;;;;;;8.95;99.56;100800.56;5065324;28;20471;-78
2020/12/24 02:39:32;;;;;;;218.32;120.03;;;;;;;8.95;99.24;100776.47;5070731;28;20033;-79
2020/12/24 02:42:36;;;;;;;196.10;112.82;;;;;;;9.01;99.38;100770.66;5058580;28;20045;-78
2020/12/24 02:45:41;;;;;;;201.45;112.43;;;;;;;9.03;99.35;100776.75;5054471;28;20044;-78
2020/12/24 02:48:45;;;;;;;207.48;114.50;;;;;;;8.95;99.38;100760.41;5062375;28;20044;-78
2020/12/24 02:51:49;;;;;;;199.80;114.63;;;;;;;8.93;99.34;100760.53;5054362;28;20045;-78
2020/12/24 02:54:54;;;;;;;205.52;114.68;;;;;;;8.98;99.84;100741.44;5054350;28;20052;-78
2020/12/24 02:57:58;;;;;;;200.60;112.28;;;;;;;8.98;99.60;100733.41;5054265;28;20049;-80
2020/12/24 03:01:02;;;;;;;202.98;111.40;;;;;;;9.01;99.57;100730.50;5069151;28;20487;-78
2020/12/24 03:04:06;;;;;;;208.85;114.80;;;;;;;8.97;99.78;100729.00;5054214;28;20049;-79
2020/12/24 03:07:10;;;;;;;204.90;115.25;;;;;;;8.92;99.74;100723.13;5063052;28;20484;-80
2020/12/24 03:10:15;;;;;;;227.25;116.47;;;;;;;8.99;99.91;100716.34;5074194;28;20395;-80
2020/12/24 03:13:20;;;;;;;219.07;110.57;;;;;;;8.98;99.82;100726.22;5073381;28;20044;-79
2020/12/24 03:16:24;;;;;;;207.88;112.40;;;;;;;9.01;99.75;100723.28;5065527;28;20483;-80
2020/12/24 03:19:29;;;;;;;213.38;111.68;;;;;;;9.00;100.00;100715.38;5053760;28;20037;-79
2020/12/24 03:22:34;;;;;;;235.05;116.55;;;;;;;8.97;100.00;100713.78;5068792;28;20399;-78
2020/12/24 03:25:39;;;;;;;244.05;119.75;;;;;;;9.04;99.93;100708.81;5074187;28;20044;-79
2020/12/24 03:28:43;;;;;;;238.60;114.95;;;;;;;9.07;100.00;100713.94;5058078;28;20037;-78
2020/12/24 03:31:48;;;;;;;232.23;114.40;;;;;;;9.14;99.75;100704.47;5053851;28;20468;-79
2020/12/24 03:34:52;;;;;;;235.73;116.50;;;;;;;9.02;100.00;100711.63;5054080;28;20049;-77
2020/12/24 03:37:56;;;;;;;249.90;118.80;;;;;;;8.94;99.84;100695.28;5053993;28;20040;-79
2020/12/24 03:41:01;;;;;;;274.77;120.78;;;;;;;8.96;100.00;100705.91;5070239;28;20041;-80
2020/12/24 03:44:05;;;;;;;279.52;120.82;;;;;;;8.93;100.00;100701.63;5059989;28;20488;-78
2020/12/24 03:47:09;;;;;;;267.90;117.60;;;;;;;8.89;100.00;100685.88;5055485;28;20049;-78
2020/12/24 03:50:13;;;;;;;;;;;;;;;9.02;100.00;100679.50;5063092;28;20475;-76
2020/12/24 03:53:16;;;;;;;257.83;114.30;;;;;;;9.00;100.00;100665.38;5068626;28;19916;-76
2020/12/24 03:56:21;;;;;;;245.65;109.22;;;;;;;9.01;100.00;100679.63;5059946;28;20392;-78
2020/12/24 03:59:25;;;;;;;238.23;110.82;;;;;;;8.89;100.00;100668.00;5057365;28;20033;-79
2020/12/24 04:02:29;;;;;;;265.38;115.90;;;;;;;8.93;100.00;100674.84;5056617;28;20045;-77
2020/12/24 04:05:33;;;;;;;254.55;112.25;;;;;;;8.94;100.00;100654.25;5057743;28;20378;-79
2020/12/24 04:08:37;;;;;;;260.35;113.75;;;;;;;8.94;100.00;100652.44;5057407;28;20045;-77
2020/12/24 04:11:41;;;;;;;260.90;115.95;;;;;;;8.92;100.00;100646.38;5057281;28;20037;-79
2020/12/24 04:14:46;;;;;;;257.23;115.28;;;;;;;8.88;100.00;100647.56;5057306;28;20053;-77
2020/12/24 04:17:50;;;;;;;267.65;114.03;;;;;;;8.85;100.00;100652.31;5056423;28;20041;-80
2020/12/24 04:20:55;;;;;;;278.67;112.15;;;;;;;8.81;100.00;100626.75;5056076;28;20484;-77
2020/12/24 04:23:59;;;;;;;253.80;112.13;;;;;;;8.84;100.00;100631.88;5056885;28;20045;-78
2020/12/24 04:27:03;;;;;;;283.58;111.80;;;;;;;8.82;100.00;100617.72;5057240;28;20384;-80
2020/12/24 04:30:08;;;;;;;301.20;110.75;;;;;;;8.75;100.00;100619.16;5057249;28;20044;-77
2020/12/24 04:33:13;;;;;;;276.52;116.82;;;;;;;8.71;100.00;100615.03;5056138;28;20041;-76
2020/12/24 04:36:17;;;;;;;324.42;118.60;;;;;;;8.65;100.00;100596.75;5056715;28;20045;-79
2020/12/24 04:39:21;;;;;;;329.52;119.88;;;;;;;8.65;100.00;100591.41;5056979;28;20049;-79
2020/12/24 04:42:26;;;;;;;295.50;117.68;;;;;;;8.70;100.00;100597.25;5056897;28;20488;-79
2020/12/24 04:45:32;;;;;;;294.40;114.20;;;;;;;8.59;100.00;100586.53;5056259;28;20053;-78
2020/12/24 04:48:39;;;;;;;276.70;112.22;;;;;;;8.68;100.00;100581.34;5055903;28;20037;-78
2020/12/24 04:51:44;;;;;;;263.83;111.80;;;;;;;8.68;100.00;100567.09;5056447;28;20041;-78
2020/12/24 04:54:49;;;;;;;317.80;116.35;;;;;;;8.75;100.00;100566.50;5056359;28;20488;-78
2020/12/24 04:57:58;;;;;;;272.95;114.32;;;;;;;8.69;100.00;100576.84;5056454;28;20044;-79
2020/12/24 05:01:03;;;;;;;286.52;111.53;;;;;;;8.68;100.00;100572.44;5056315;28;20475;-78
2020/12/24 05:04:07;;;;;;;266.52;106.70;;;;;;;8.72;100.00;100576.56;5055531;28;20041;-79
2020/12/24 05:07:11;;;;;;;253.77;108.47;;;;;;;8.67;100.00;100602.84;5055461;28;20488;-79
2020/12/24 05:10:16;;;;;;;266.67;105.22;;;;;;;8.67;100.00;100592.13;5056292;28;20053;-78
2020/12/24 05:13:20;;;;;;;255.63;107.15;;;;;;;8.60;100.00;100591.75;5056541;28;20041;-80
2020/12/24 05:16:24;;;;;;;315.55;112.63;;;;;;;8.60;100.00;100577.53;5056010;28;20045;-78
2020/12/24 05:19:31;;;;;;;318.35;115.88;;;;;;;8.61;100.00;100587.25;5056197;28;20049;-78
2020/12/24 05:22:35;;;;;;;340.15;120.25;;;;;;;8.54;100.00;100567.31;5056055;28;20053;-79
2020/12/24 05:25:41;;;;;;;303.58;115.50;;;;;;;8.64;100.00;100577.16;5055919;28;20411;-78
2020/12/24 05:28:46;;;;;;;330.85;116.63;;;;;;;8.56;100.00;100542.13;5056207;28;20041;-79
2020/12/24 05:31:51;;;;;;;280.27;111.53;;;;;;;8.67;100.00;100566.22;5055269;28;20041;-79
2020/12/24 05:35:10;;;;;;;304.45;116.05;;;;;;;8.52;100.00;100548.66;5055837;28;20044;-79
2020/12/24 05:38:30;;;;;;;273.88;110.82;;;;;;;8.53;100.00;100547.72;5055762;28;20049;-78
2020/12/24 05:41:36;;;;;;;290.75;116.95;;;;;;;8.58;100.00;100560.72;5043089;28;20045;-78
2020/12/24 05:44:41;;;;;;;309.20;111.00;;;;;;;8.63;100.00;100556.75;5054860;28;20041;-79
2020/12/24 05:47:45;;;;;;;311.95;114.60;;;;;;;8.58;100.00;100550.03;5055500;28;20071;-79
2020/12/24 05:50:50;;;;;;;271.80;115.63;;;;;;;8.57;100.00;100554.53;5054912;28;20049;-79
2020/12/24 05:53:54;;;;;;;379.13;119.57;;;;;;;8.63;100.00;100566.59;5054368;28;20045;-76
2020/12/24 05:56:59;;;;;;;322.17;116.53;;;;;;;8.60;100.00;100546.28;5055201;28;20041;-77
2020/12/24 06:00:03;;;;;;;299.67;116.05;;;;;;;8.69;100.00;100539.38;5055427;28;20044;-78
2020/12/24 06:03:18;;;;;;;291.73;116.10;;;;;;;8.76;100.00;100537.94;5054608;28;20040;-79
2020/12/24 06:06:42;;;;;;;284.67;111.22;;;;;;;8.65;100.00;100538.75;5054321;28;20045;-79
2020/12/24 06:09:51;;;;;;;339.85;118.90;;;;;;;8.61;100.00;100515.03;5054054;28;20068;-78
2020/12/24 06:13:07;;;;;;;293.40;117.63;;;;;;;8.61;100.00;100512.34;5055240;28;20048;-78
2020/12/24 06:16:12;;;;;;;318.52;116.60;;;;;;;8.61;100.00;100521.22;5065156;28;20052;-78
2020/12/24 06:19:17;;;;;;;298.98;115.50;;;;;;;8.59;100.00;100522.31;5070985;28;20044;-79
2020/12/24 06:22:26;;;;;;;258.45;108.55;;;;;;;8.77;100.00;100519.06;5073693;28;20044;-79
2020/12/24 06:25:30;;;;;;;267.92;111.95;;;;;;;8.61;100.00;100512.34;5074209;28;20044;-78
2020/12/24 06:28:38;;;;;;;308.65;115.80;;;;;;;8.59;100.00;100509.81;5069674;28;20045;-77
2020/12/24 06:31:44;;;;;;;264.27;109.75;;;;;;;8.70;100.00;100499.09;5074213;28;20483;-78
2020/12/24 06:34:50;;;;;;;312.80;114.05;;;;;;;8.64;100.00;100502.25;5073973;28;20041;-78
2020/12/24 06:37:54;;;;;;;233.98;103.10;;;;;;;8.72;100.00;100507.00;5073748;28;20033;-79
2020/12/24 06:40:58;;;;;;;;;;;;;;;8.67;100.00;100496.66;5074233;28;20032;-79
2020/12/24 06:44:02;;;;;;;303.63;111.45;;;;;;;8.63;100.00;100487.19;5074221;28;19916;-80
2020/12/24 06:47:14;;;;;;;342.85;118.65;;;;;;;8.58;100.00;100494.72;5073557;28;20044;-79
2020/12/24 06:50:38;;;;;;;335.70;120.07;;;;;;;8.58;100.00;100483.16;5073578;28;20044;-79
2020/12/24 06:53:42;;;;;;;;;;;;;;;8.56;100.00;100480.59;5073759;28;20120;-80
2020/12/24 06:56:46;;;;;;;277.27;112.57;;;;;;;8.54;100.00;100465.66;5073531;28;19917;-78
2020/12/24 07:00:24;;;;;;;344.63;124.68;;;;;;;8.52;100.00;100448.88;5073430;28;20037;-79
2020/12/24 07:03:28;;;;;;;348.25;122.28;;;;;;;8.54;100.00;100453.13;5072159;28;20048;-79
2020/12/24 07:06:41;;;;;;;431.33;130.70;;;;;;;8.45;100.00;100465.38;5055612;28;20041;-80
2020/12/24 07:09:45;;;;;;;376.88;128.50;;;;;;;8.52;100.00;100466.59;5063346;28;20037;-76
2020/12/24 07:12:53;;;;;;;438.67;135.00;;;;;;;8.44;100.00;100462.81;5071493;28;20040;-79
2020/12/24 07:15:58;;;;;;;537.83;141.63;;;;;;;8.39;100.00;100471.19;5073796;28;20407;-77
2020/12/24 07:19:03;;;;;;;450.77;144.02;;;;;;;8.46;100.00;100468.91;5073122;28;20040;-75
2020/12/24 07:22:11;;;;;;;423.75;141.35;;;;;;;8.58;100.00;100485.81;5073038;28;20407;-83
2020/12/24 07:25:16;;;;;;;406.13;140.50;;;;;;;8.52;100.00;100471.09;5065451;28;20048;-81
2020/12/24 07:28:21;;;;;;;398.40;138.35;;;;;;;8.49;100.00;100480.19;5070812;28;20044;-81
2020/12/24 07:31:27;;;;;;;402.92;140.55;;;;;;;8.50;100.00;100473.03;5056157;28;20048;-81
2020/12/24 07:34:34;;;;;;;461.65;141.38;;;;;;;8.61;100.00;100496.28;5063797;28;20048;-80
2020/12/24 07:37:38;;;;;;;412.05;136.88;;;;;;;8.56;100.00;100488.63;5053273;28;20037;-76
2020/12/24 07:40:42;;;;;;;414.58;134.38;;;;;;;8.64;100.00;100501.41;5054473;28;20040;-77
2020/12/24 07:43:46;;;;;;;;;;;;;;;8.56;100.00;100487.78;5067329;28;20045;-77
2020/12/24 07:46:51;;;;;;;467.30;142.27;;;;;;;8.52;100.00;100501.38;5072608;28;19916;-79
2020/12/24 07:49:55;;;;;;;419.63;141.48;;;;;;;8.54;100.00;100487.03;5073526;28;20044;-79
2020/12/24 07:53:00;;;;;;;486.45;143.13;;;;;;;8.54;100.00;100484.38;5064403;28;20129;-78
2020/12/24 07:56:06;;;;;;;457.10;139.00;;;;;;;8.55;100.00;100484.25;5057818;28;20045;-79
2020/12/24 07:59:11;;;;;;;492.15;147.93;;;;;;;8.53;100.00;100488.84;5063414;28;20479;-79
2020/12/24 08:02:15;;;;;;;566.65;149.73;;;;;;;8.61;100.00;100482.91;5072095;28;20048;-77
2020/12/24 08:05:19;;;;;;;431.00;138.55;;;;;;;8.59;100.00;100487.53;5072909;28;20040;-76
2020/12/24 08:08:24;;;;;;;443.83;141.38;;;;;;;8.58;100.00;100491.19;5072903;28;20052;-78
2020/12/24 08:11:28;;;;;;;491.40;143.40;;;;;;;8.61;100.00;100490.94;5072939;28;20044;-82
2020/12/24 08:14:32;;;;;;;492.35;142.60;;;;;;;8.56;100.00;100480.59;5058846;28;20029;-80
2020/12/24 08:17:49;;;;;;;462.63;140.55;;;;;;;8.54;100.00;100460.28;5071564;28;20037;-79
2020/12/24 08:20:57;;;;;;;417.52;142.32;;;;;;;8.61;100.00;100482.91;5073021;28;20040;-79
2020/12/24 08:24:07;;;;;;;439.80;142.80;;;;;;;8.57;100.00;100463.56;5071605;28;20044;-82
2020/12/24 08:27:12;;;;;;;600.88;150.13;;;;;;;8.54;100.00;100493.25;5073547;28;20044;-79
2020/12/24 08:30:17;;;;;;;495.92;150.73;;;;;;;8.59;100.00;100480.38;5073701;28;20052;-78
2020/12/24 08:33:23;;;;;;;563.15;156.98;;;;;;;8.54;100.00;100492.38;5073462;28;20044;-78
2020/12/24 08:36:28;;;;;;;503.73;157.07;;;;;;;8.64;100.00;100491.53;5070019;28;20052;-79
2020/12/24 08:39:32;;;;;;;496.48;170.82;;;;;;;8.61;100.00;100480.25;5055338;28;20041;-83
2020/12/24 08:42:39;;;;;;;570.03;191.75;;;;;;;8.60;100.00;100491.91;5032188;28;20053;-83
2020/12/24 08:45:46;;;;;;;470.92;157.52;;;;;;;8.59;100.00;100490.22;5056423;28;20056;-83
2020/12/24 08:48:50;;;;;;;500.25;155.73;;;;;;;8.59;100.00;100476.84;5081725;28;20041;-78
2020/12/24 08:52:24;;;;;;;476.42;151.88;;;;;;;8.65;100.00;100479.88;5074814;28;20036;-80
2020/12/24 08:55:29;;;;;;;434.45;149.23;;;;;;;8.68;100.00;100486.81;4993126;28;20070;-80
2020/12/24 08:58:33;;;;;;;464.00;147.02;;;;;;;8.73;100.00;100495.34;4983297;28;20046;-80
2020/12/24 09:01:42;;;;;;;412.30;145.77;;;;;;;8.76;100.00;100487.94;4994374;28;20050;-80
2020/12/24 09:04:56;;;;;;;472.63;145.52;;;;;;;8.84;100.00;100504.22;4983486;28;20058;-80
2020/12/24 09:08:01;;;;;;;356.95;129.73;;;;;;;8.98;100.00;100479.06;4993864;28;20457;-79
2020/12/24 09:11:06;;;;;;;387.83;126.25;;;;;;;9.04;100.00;100483.91;4994073;28;20042;-79
2020/12/24 09:14:16;;;;;;;303.80;117.50;;;;;;;8.96;100.00;100467.63;4993985;28;20050;-80
2020/12/24 09:17:20;;;;;;;312.88;122.82;;;;;;;9.06;100.00;100466.75;4994081;28;20046;-80
2020/12/24 09:20:27;;;;;;;;;;;;;;;9.13;100.00;100465.28;4994206;28;20050;-80
2020/12/24 09:23:31;;;;;;;261.60;109.07;;;;;;;9.20;100.00;100459.44;4993880;28;19933;-79
2020/12/24 09:26:49;;;;;;;182.93;89.72;;;;;;;9.18;100.00;100485.50;4993481;28;20062;-81
2020/12/24 09:29:54;;;;;;;156.32;84.03;;;;;;;9.14;100.00;100482.22;4963254;28;20051;-81
2020/12/24 09:33:02;;;;;;;176.82;86.32;;;;;;;9.03;100.00;100461.66;5015831;28;20042;-79
2020/12/24 09:36:07;;;;;;;165.68;83.05;;;;;;;9.00;100.00;100475.28;5035358;28;20041;-79
2020/12/24 09:39:11;;;;;;;190.93;90.60;;;;;;;8.99;100.00;100462.00;5034956;28;20045;-80
2020/12/24 09:42:14;;;;;;;197.43;91.15;;;;;;;9.02;100.00;100459.09;5034872;28;20049;-78
2020/12/24 09:45:19;;;;;;;204.25;93.00;;;;;;;9.01;100.00;100446.69;5035164;28;20046;-80
2020/12/24 09:48:23;;;;;;;225.23;110.18;;;;;;;9.16;100.00;100432.91;5034019;28;20045;-78
2020/12/24 09:51:32;;;;;;;229.05;108.00;;;;;;;9.02;100.00;100448.38;5020077;28;20054;-81
2020/12/24 09:54:36;;;;;;;212.43;101.50;;;;;;;8.99;100.00;100422.72;5013953;28;20049;-80
2020/12/24 09:57:41;;;;;;;280.17;110.45;;;;;;;8.99;100.00;100413.81;5032175;28;20484;-79
2020/12/24 10:00:45;;;;;;;259.73;109.07;;;;;;;9.10;100.00;100422.72;5034315;28;20049;-80
2020/12/24 10:03:50;;;;;;;242.50;101.65;;;;;;;9.05;100.00;100408.00;5034599;28;20037;-81
2020/12/24 10:06:54;;;;;;;243.77;101.13;;;;;;;9.04;100.00;100408.94;5052279;28;20045;-81
2020/12/24 10:09:59;;;;;;;224.77;103.07;;;;;;;9.01;100.00;100414.56;5074286;28;20040;-79
2020/12/24 10:13:03;;;;;;;225.50;94.85;;;;;;;9.10;100.00;100395.06;5074706;28;20404;-78
2020/12/24 10:16:07;;;;;;;225.85;98.45;;;;;;;9.09;100.00;100393.38;5073348;28;20044;-81
2020/12/24 10:19:12;;;;;;;222.27;94.13;;;;;;;9.11;100.00;100399.44;5073926;28;20426;-81
2020/12/24 10:22:16;;;;;;;204.70;95.63;;;;;;;9.02;100.00;100374.28;5062949;28;20045;-81
2020/12/24 10:25:20;;;;;;;231.15;102.07;;;;;;;8.94;100.00;100375.84;5070976;28;20400;-77
2020/12/24 10:28:25;;;;;;;223.52;99.35;;;;;;;9.01;100.00;100364.53;5071749;28;20048;-78
2020/12/24 10:31:29;;;;;;;266.05;105.80;;;;;;;8.93;100.00;100350.94;5071958;28;20304;-79
2020/12/24 10:34:34;;;;;;;238.43;106.80;;;;;;;9.04;100.00;100352.72;5059509;28;20045;-79
2020/12/24 10:37:39;;;;;;;235.15;103.55;;;;;;;9.09;100.00;100340.66;5052683;28;20041;-79
2020/12/24 10:40:43;;;;;;;240.90;102.18;;;;;;;9.03;100.00;100333.16;5053880;28;20041;-81
2020/12/24 10:43:47;;;;;;;;;;;;;;;9.18;100.00;100341.75;5065131;28;20444;-80
2020/12/24 10:46:55;;;;;;;213.77;95.00;;;;;;;9.13;100.00;100346.63;5053988;28;20295;-80
2020/12/24 10:49:59;;;;;;;209.75;88.53;;;;;;;9.26;100.00;100333.91;5067157;28;20041;-82
2020/12/24 10:53:03;;;;;;;191.70;89.88;;;;;;;9.29;100.00;100340.84;5073856;28;20480;-81
2020/12/24 10:56:14;;;;;;;197.05;88.07;;;;;;;9.26;100.00;100328.56;5041602;28;20048;-84
2020/12/24 10:59:19;;;;;;;195.48;89.43;;;;;;;9.18;100.00;100324.84;5053574;28;20045;-78
2020/12/24 11:02:23;;;;;;;178.27;89.88;;;;;;;9.16;100.00;100307.06;5067304;28;20041;-81
2020/12/24 11:05:27;;;;;;;173.75;83.15;;;;;;;9.19;100.00;100297.91;5056940;28;20044;-80
2020/12/24 11:08:32;;;;;;;180.88;88.93;;;;;;;9.15;100.00;100304.50;5060544;28;20040;-78
2020/12/24 11:11:37;;;;;;;188.63;91.40;;;;;;;9.21;100.00;100290.59;5053494;28;20041;-79
2020/12/24 11:14:41;;;;;;;181.70;89.78;;;;;;;9.24;100.00;100285.00;5053359;28;20044;-77
2020/12/24 11:17:46;;;;;;;181.43;86.95;;;;;;;9.33;100.00;100289.59;5053423;28;20045;-77
2020/12/24 11:20:51;;;;;;;186.30;94.10;;;;;;;9.42;100.00;100271.88;5051616;28;20040;-78
2020/12/24 11:23:55;;;;;;;170.52;87.90;;;;;;;9.57;100.00;100260.75;5051332;28;20488;-77
2020/12/24 11:26:59;;;;;;;;;;;;;;;9.52;100.00;100256.75;5052688;28;20392;-78
2020/12/24 11:30:03;;;;;;;203.82;91.68;;;;;;;9.46;100.00;100268.81;5052228;28;19916;-78
2020/12/24 11:33:07;;;;;;;203.00;90.97;;;;;;;9.32;100.00;100236.16;5051222;28;20426;-78
2020/12/24 11:36:12;;;;;;;239.95;106.78;;;;;;;9.26;100.00;100245.53;5052779;28;20037;-79
2020/12/24 11:39:16;;;;;;;234.93;115.07;;;;;;;9.34;100.00;100252.94;5053473;28;20045;-78
2020/12/24 11:42:20;;;;;;;275.63;139.27;;;;;;;9.37;100.00;100258.91;5053289;28;20049;-78
2020/12/24 11:45:24;;;;;;;;;;;;;;;9.33;100.00;100262.81;5053434;28;20044;-79
2020/12/24 11:48:29;;;;;;;249.70;122.15;;;;;;;9.25;100.00;100254.56;5053048;28;20312;-79
2020/12/24 11:51:33;;;;;;;204.73;100.10;;;;;;;9.19;100.00;100247.03;5052779;28;20484;-79
2020/12/24 11:54:38;;;;;;;237.80;99.20;;;;;;;9.18;100.00;100250.72;5052578;28;20061;-79
2020/12/24 11:57:42;;;;;;;234.80;100.18;;;;;;;9.28;100.00;100248.09;5052409;28;20041;-78
2020/12/24 12:00:46;;;;;;;263.52;101.30;;;;;;;9.24;100.00;100212.69;5052863;28;20423;-79
2020/12/24 12:03:52;;;;;;;256.60;104.78;;;;;;;9.25;100.00;100194.78;5053162;28;20041;-79
2020/12/24 12:06:56;;;;;;;296.85;101.32;;;;;;;9.15;100.00;100202.75;5052694;28;20048;-80
2020/12/24 12:10:01;;;;;;;255.40;102.07;;;;;;;9.13;100.00;100191.34;5053587;28;20045;-78
2020/12/24 12:13:05;;;;;;;265.95;107.32;;;;;;;9.16;100.00;100186.56;5052324;28;20045;-78
2020/12/24 12:16:10;;;;;;;251.88;102.88;;;;;;;9.31;100.00;100181.72;5057311;28;20060;-87
2020/12/24 12:19:14;;;;;;;217.10;92.88;;;;;;;9.33;100.00;100185.16;5056865;28;20045;-79
2020/12/24 12:22:19;;;;;;;220.25;95.25;;;;;;;9.32;100.00;100180.75;5056097;28;20041;-78
2020/12/24 12:25:27;;;;;;;239.82;99.35;;;;;;;9.27;100.00;100195.50;5055924;28;20400;-77
2020/12/24 12:28:31;;;;;;;290.85;105.68;;;;;;;9.25;100.00;100195.66;5056724;28;20037;-79
2020/12/24 12:31:36;;;;;;;273.35;104.55;;;;;;;9.24;100.00;100185.91;5056263;28;20491;-78
2020/12/24 12:34:41;;;;;;;329.63;114.70;;;;;;;9.23;100.00;100188.72;5044357;28;20037;-78
2020/12/24 12:37:46;;;;;;;337.80;112.90;;;;;;;9.21;100.00;100191.50;5056647;28;20387;-78
2020/12/24 12:40:51;;;;;;;262.05;102.97;;;;;;;9.18;100.00;100194.47;5056509;28;20041;-78
2020/12/24 12:43:56;;;;;;;263.73;103.90;;;;;;;9.22;100.00;100197.72;5056820;28;20045;-78
2020/12/24 12:47:00;;;;;;;274.50;102.70;;;;;;;9.22;100.00;100179.84;5056726;28;20041;-79
2020/12/24 12:50:09;;;;;;;252.77;100.70;;;;;;;9.18;100.00;100170.38;5056824;28;20037;-78
2020/12/24 12:53:15;;;;;;;261.77;102.50;;;;;;;9.19;100.00;100172.06;5056697;28;20037;-78
2020/12/24 12:56:22;;;;;;;230.05;95.32;;;;;;;9.30;100.00;100147.91;5056980;28;20052;-79
2020/12/24 12:59:27;;;;;;;235.00;95.75;;;;;;;9.24;100.00;100159.13;5056859;28;20384;-78
2020/12/24 13:02:31;;;;;;;219.30;93.20;;;;;;;9.26;100.00;100156.34;5056571;28;20053;-78
2020/12/24 13:05:36;;;;;;;290.38;98.78;;;;;;;9.12;100.00;100155.66;5056841;28;20049;-80
2020/12/24 13:08:40;;;;;;;260.17;96.65;;;;;;;9.15;100.00;100125.09;5056397;28;20049;-79
2020/12/24 13:11:48;;;;;;;269.15;101.03;;;;;;;9.20;100.00;100132.75;5056497;28;20384;-79
2020/12/24 13:14:53;;;;;;;240.18;98.10;;;;;;;9.29;100.00;100121.22;5056691;28;20048;-79
2020/12/24 13:17:57;;;;;;;271.90;103.20;;;;;;;9.26;100.00;100122.34;5056389;28;20045;-79
2020/12/24 13:21:01;;;;;;;250.77;96.07;;;;;;;9.25;100.00;100120.66;5055941;28;20476;-77
2020/12/24 13:24:05;;;;;;;251.57;100.15;;;;;;;9.24;100.00;100127.00;5055935;28;20045;-77
2020/12/24 13:27:11;;;;;;;253.23;94.47;;;;;;;9.18;100.00;100124.84;5055434;28;20380;-76
2020/12/24 13:30:16;;;;;;;262.70;96.15;;;;;;;9.27;100.00;100132.09;5055569;28;20045;-77
2020/12/24 13:33:20;;;;;;;255.73;108.70;;;;;;;9.36;100.00;100123.25;5055210;28;20045;-79
2020/12/24 13:36:25;;;;;;;271.27;110.80;;;;;;;9.34;100.00;100111.81;5056071;28;20045;-77
2020/12/24 13:39:29;;;;;;;240.02;91.70;;;;;;;9.34;100.00;100125.22;5055956;28;20057;-80
2020/12/24 13:42:34;;;;;;;300.33;92.68;;;;;;;9.32;100.00;100116.47;5055250;28;20049;-78
2020/12/24 13:45:38;;;;;;;268.73;93.97;;;;;;;9.28;100.00;100104.34;5055788;28;20396;-80
2020/12/24 13:48:43;;;;;;;301.98;93.88;;;;;;;9.24;100.00;100099.34;5055724;28;20040;-79
2020/12/24 13:51:50;;;;;;;263.30;94.70;;;;;;;9.22;100.00;100112.03;5055617;28;20045;-76